sensor_id;sensor_type;location;lat;lon;timestamp;P1;durP1;ratioP1;P2;durP2;ratioP2
10977;SDS011;5542;48.272;10.794;2023-09-30T00:00:32;9.50;;;5.78;;
10977;SDS011;5542;48.272;10.794;2023-09-30T00:02:58;9.37;;;5.87;;
10977;SDS011;5542;48.272;10.794;2023-09-30T00:05:25;10.35;;;5.30;;
10977;SDS011;5542;48.272;10.794;2023-09-30T00:07:52;10.20;;;5.82;;
10977;SDS011;5542;48.272;10.794;2023-09-30T00:10:19;8.88;;;5.28;;
10977;SDS011;5542;48.272;10.794;2023-09-30T00:12:47;9.77;;;5.75;;
10977;SDS011;5542;48.272;10.794;2023-09-30T00:15:13;9.87;;;6.07;;
10977;SDS011;5542;48.272;10.794;2023-09-30T00:17:40;10.75;;;6.43;;
10977;SDS011;5542;48.272;10.794;2023-09-30T00:20:07;9.93;;;6.07;;
10977;SDS011;5542;48.272;10.794;2023-09-30T00:22:35;13.73;;;8.35;;
10977;SDS011;5542;48.272;10.794;2023-09-30T00:25:02;15.48;;;8.35;;
10977;SDS011;5542;48.272;10.794;2023-09-30T00:27:29;11.40;;;6.80;;
10977;SDS011;5542;48.272;10.794;2023-09-30T00:29:57;10.52;;;6.10;;
10977;SDS011;5542;48.272;10.794;2023-09-30T00:32:24;12.23;;;6.75;;
10977;SDS011;5542;48.272;10.794;2023-09-30T00:34:50;11.43;;;6.18;;
10977;SDS011;5542;48.272;10.794;2023-09-30T00:37:18;9.23;;;5.35;;
10977;SDS011;5542;48.272;10.794;2023-09-30T00:39:45;11.45;;;6.35;;
10977;SDS011;5542;48.272;10.794;2023-09-30T00:42:12;10.48;;;5.57;;
10977;SDS011;5542;48.272;10.794;2023-09-30T00:44:39;9.20;;;5.53;;
10977;SDS011;5542;48.272;10.794;2023-09-30T00:47:07;9.38;;;5.68;;
10977;SDS011;5542;48.272;10.794;2023-09-30T00:49:35;8.75;;;5.78;;
10977;SDS011;5542;48.272;10.794;2023-09-30T00:52:02;10.98;;;6.70;;
10977;SDS011;5542;48.272;10.794;2023-09-30T00:54:29;9.90;;;5.55;;
10977;SDS011;5542;48.272;10.794;2023-09-30T00:56:57;10.27;;;5.95;;
10977;SDS011;5542;48.272;10.794;2023-09-30T00:59:22;14.57;;;7.53;;
10977;SDS011;5542;48.272;10.794;2023-09-30T01:01:51;10.02;;;5.93;;
10977;SDS011;5542;48.272;10.794;2023-09-30T01:04:24;12.93;;;7.28;;
10977;SDS011;5542;48.272;10.794;2023-09-30T01:06:52;11.02;;;6.50;;
10977;SDS011;5542;48.272;10.794;2023-09-30T01:09:19;18.52;;;9.02;;
10977;SDS011;5542;48.272;10.794;2023-09-30T01:11:46;14.98;;;8.00;;
10977;SDS011;5542;48.272;10.794;2023-09-30T01:14:23;10.95;;;6.80;;
10977;SDS011;5542;48.272;10.794;2023-09-30T01:16:50;9.27;;;5.63;;
10977;SDS011;5542;48.272;10.794;2023-09-30T01:19:17;10.43;;;6.10;;
10977;SDS011;5542;48.272;10.794;2023-09-30T01:21:45;10.07;;;5.68;;
10977;SDS011;5542;48.272;10.794;2023-09-30T01:24:13;8.07;;;5.20;;
10977;SDS011;5542;48.272;10.794;2023-09-30T01:26:40;8.85;;;4.82;;
10977;SDS011;5542;48.272;10.794;2023-09-30T01:29:07;7.33;;;4.50;;
10977;SDS011;5542;48.272;10.794;2023-09-30T01:31:36;8.68;;;4.75;;
10977;SDS011;5542;48.272;10.794;2023-09-30T01:34:03;7.63;;;4.87;;
10977;SDS011;5542;48.272;10.794;2023-09-30T01:36:30;14.38;;;7.35;;
10977;SDS011;5542;48.272;10.794;2023-09-30T01:38:58;10.48;;;5.80;;
10977;SDS011;5542;48.272;10.794;2023-09-30T01:41:26;9.60;;;5.90;;
10977;SDS011;5542;48.272;10.794;2023-09-30T01:43:53;10.73;;;6.15;;
10977;SDS011;5542;48.272;10.794;2023-09-30T01:46:20;9.85;;;6.00;;
10977;SDS011;5542;48.272;10.794;2023-09-30T01:48:47;7.88;;;4.95;;
10977;SDS011;5542;48.272;10.794;2023-09-30T01:51:14;10.00;;;5.47;;
10977;SDS011;5542;48.272;10.794;2023-09-30T01:53:41;9.35;;;5.13;;
10977;SDS011;5542;48.272;10.794;2023-09-30T01:56:09;12.90;;;6.35;;
10977;SDS011;5542;48.272;10.794;2023-09-30T01:58:36;12.93;;;6.97;;
10977;SDS011;5542;48.272;10.794;2023-09-30T02:01:02;11.33;;;6.53;;
10977;SDS011;5542;48.272;10.794;2023-09-30T02:03:30;13.55;;;6.88;;
10977;SDS011;5542;48.272;10.794;2023-09-30T02:05:56;12.52;;;6.75;;
10977;SDS011;5542;48.272;10.794;2023-09-30T02:08:23;10.13;;;6.10;;
10977;SDS011;5542;48.272;10.794;2023-09-30T02:10:50;10.53;;;5.93;;
10977;SDS011;5542;48.272;10.794;2023-09-30T02:13:18;11.60;;;6.30;;
10977;SDS011;5542;48.272;10.794;2023-09-30T02:15:45;8.95;;;5.40;;
10977;SDS011;5542;48.272;10.794;2023-09-30T02:18:12;7.37;;;5.03;;
10977;SDS011;5542;48.272;10.794;2023-09-30T02:20:39;12.48;;;6.80;;
10977;SDS011;5542;48.272;10.794;2023-09-30T02:23:06;14.32;;;7.10;;
10977;SDS011;5542;48.272;10.794;2023-09-30T02:25:35;9.70;;;5.68;;
10977;SDS011;5542;48.272;10.794;2023-09-30T02:28:02;8.40;;;5.27;;
10977;SDS011;5542;48.272;10.794;2023-09-30T02:30:31;9.15;;;5.20;;
10977;SDS011;5542;48.272;10.794;2023-09-30T02:32:57;6.55;;;4.70;;
10977;SDS011;5542;48.272;10.794;2023-09-30T02:35:24;7.70;;;4.88;;
10977;SDS011;5542;48.272;10.794;2023-09-30T02:37:51;8.00;;;4.80;;
10977;SDS011;5542;48.272;10.794;2023-09-30T02:40:18;8.98;;;5.13;;
10977;SDS011;5542;48.272;10.794;2023-09-30T02:42:45;9.50;;;5.68;;
10977;SDS011;5542;48.272;10.794;2023-09-30T02:45:13;9.43;;;5.15;;
10977;SDS011;5542;48.272;10.794;2023-09-30T02:47:43;10.52;;;6.10;;
10977;SDS011;5542;48.272;10.794;2023-09-30T02:50:10;11.77;;;6.65;;
10977;SDS011;5542;48.272;10.794;2023-09-30T02:52:37;10.63;;;6.00;;
10977;SDS011;5542;48.272;10.794;2023-09-30T02:55:06;7.60;;;4.90;;
10977;SDS011;5542;48.272;10.794;2023-09-30T02:57:33;6.47;;;4.40;;
10977;SDS011;5542;48.272;10.794;2023-09-30T03:00:01;8.85;;;5.47;;
10977;SDS011;5542;48.272;10.794;2023-09-30T03:02:37;8.65;;;4.95;;
10977;SDS011;5542;48.272;10.794;2023-09-30T03:05:05;8.32;;;5.00;;
10977;SDS011;5542;48.272;10.794;2023-09-30T03:07:33;7.95;;;4.60;;
10977;SDS011;5542;48.272;10.794;2023-09-30T03:09:59;7.50;;;4.65;;
10977;SDS011;5542;48.272;10.794;2023-09-30T03:12:29;9.38;;;5.57;;
10977;SDS011;5542;48.272;10.794;2023-09-30T03:14:56;6.97;;;4.30;;
10977;SDS011;5542;48.272;10.794;2023-09-30T03:17:23;8.30;;;4.68;;
10977;SDS011;5542;48.272;10.794;2023-09-30T03:19:50;7.82;;;4.60;;
10977;SDS011;5542;48.272;10.794;2023-09-30T03:22:20;8.10;;;4.85;;
10977;SDS011;5542;48.272;10.794;2023-09-30T03:24:47;8.67;;;4.50;;
10977;SDS011;5542;48.272;10.794;2023-09-30T03:27:13;10.45;;;6.32;;
10977;SDS011;5542;48.272;10.794;2023-09-30T03:29:40;8.43;;;5.15;;
10977;SDS011;5542;48.272;10.794;2023-09-30T03:32:07;8.07;;;4.88;;
10977;SDS011;5542;48.272;10.794;2023-09-30T03:34:34;7.87;;;4.90;;
10977;SDS011;5542;48.272;10.794;2023-09-30T03:37:02;6.72;;;4.22;;
10977;SDS011;5542;48.272;10.794;2023-09-30T03:39:33;7.50;;;4.40;;
10977;SDS011;5542;48.272;10.794;2023-09-30T03:41:59;6.00;;;3.80;;
10977;SDS011;5542;48.272;10.794;2023-09-30T03:44:26;7.30;;;4.20;;
10977;SDS011;5542;48.272;10.794;2023-09-30T03:46:53;6.85;;;4.57;;
10977;SDS011;5542;48.272;10.794;2023-09-30T03:49:20;7.95;;;4.90;;
10977;SDS011;5542;48.272;10.794;2023-09-30T03:51:47;7.72;;;4.55;;
10977;SDS011;5542;48.272;10.794;2023-09-30T03:54:15;7.90;;;4.78;;
10977;SDS011;5542;48.272;10.794;2023-09-30T03:56:44;9.52;;;5.03;;
10977;SDS011;5542;48.272;10.794;2023-09-30T03:59:11;9.80;;;4.95;;
10977;SDS011;5542;48.272;10.794;2023-09-30T04:01:38;7.43;;;4.70;;
10977;SDS011;5542;48.272;10.794;2023-09-30T04:04:05;8.37;;;4.80;;
10977;SDS011;5542;48.272;10.794;2023-09-30T04:06:34;7.13;;;4.60;;
10977;SDS011;5542;48.272;10.794;2023-09-30T04:09:03;6.13;;;3.85;;
10977;SDS011;5542;48.272;10.794;2023-09-30T04:11:34;5.00;;;3.70;;
10977;SDS011;5542;48.272;10.794;2023-09-30T04:14:03;4.63;;;3.33;;
10977;SDS011;5542;48.272;10.794;2023-09-30T04:16:30;5.13;;;3.50;;
10977;SDS011;5542;48.272;10.794;2023-09-30T04:18:57;6.13;;;3.92;;
10977;SDS011;5542;48.272;10.794;2023-09-30T04:21:24;6.70;;;3.97;;
10977;SDS011;5542;48.272;10.794;2023-09-30T04:23:52;5.80;;;3.92;;
10977;SDS011;5542;48.272;10.794;2023-09-30T04:26:18;7.85;;;4.20;;
10977;SDS011;5542;48.272;10.794;2023-09-30T04:28:45;6.40;;;4.18;;
10977;SDS011;5542;48.272;10.794;2023-09-30T04:31:13;9.10;;;4.90;;
10977;SDS011;5542;48.272;10.794;2023-09-30T04:33:40;7.90;;;4.68;;
10977;SDS011;5542;48.272;10.794;2023-09-30T04:36:08;6.00;;;3.90;;
10977;SDS011;5542;48.272;10.794;2023-09-30T04:38:35;7.83;;;4.43;;
10977;SDS011;5542;48.272;10.794;2023-09-30T04:41:03;7.25;;;4.20;;
10977;SDS011;5542;48.272;10.794;2023-09-30T04:43:32;5.95;;;3.58;;
10977;SDS011;5542;48.272;10.794;2023-09-30T04:45:59;5.95;;;3.95;;
10977;SDS011;5542;48.272;10.794;2023-09-30T04:48:27;5.88;;;4.20;;
10977;SDS011;5542;48.272;10.794;2023-09-30T04:50:54;5.80;;;3.95;;
10977;SDS011;5542;48.272;10.794;2023-09-30T04:53:21;5.57;;;3.67;;
10977;SDS011;5542;48.272;10.794;2023-09-30T04:55:48;4.35;;;3.50;;
10977;SDS011;5542;48.272;10.794;2023-09-30T04:58:15;7.53;;;4.25;;
10977;SDS011;5542;48.272;10.794;2023-09-30T05:00:42;9.35;;;5.95;;
10977;SDS011;5542;48.272;10.794;2023-09-30T05:03:09;7.43;;;5.00;;
10977;SDS011;5542;48.272;10.794;2023-09-30T05:05:37;6.15;;;4.40;;
10977;SDS011;5542;48.272;10.794;2023-09-30T05:08:03;7.57;;;4.57;;
10977;SDS011;5542;48.272;10.794;2023-09-30T05:10:31;9.60;;;4.93;;
10977;SDS011;5542;48.272;10.794;2023-09-30T05:12:58;7.05;;;4.15;;
10977;SDS011;5542;48.272;10.794;2023-09-30T05:15:25;6.68;;;4.32;;
10977;SDS011;5542;48.272;10.794;2023-09-30T05:17:54;6.55;;;4.10;;
10977;SDS011;5542;48.272;10.794;2023-09-30T05:20:21;9.20;;;5.15;;
10977;SDS011;5542;48.272;10.794;2023-09-30T05:22:49;6.68;;;4.28;;
10977;SDS011;5542;48.272;10.794;2023-09-30T05:25:16;7.53;;;4.32;;
10977;SDS011;5542;48.272;10.794;2023-09-30T05:27:43;6.40;;;4.07;;
10977;SDS011;5542;48.272;10.794;2023-09-30T05:30:10;7.43;;;4.38;;
10977;SDS011;5542;48.272;10.794;2023-09-30T05:32:37;6.43;;;3.72;;
10977;SDS011;5542;48.272;10.794;2023-09-30T05:35:04;6.20;;;3.20;;
10977;SDS011;5542;48.272;10.794;2023-09-30T05:37:37;5.10;;;3.33;;
10977;SDS011;5542;48.272;10.794;2023-09-30T05:40:06;5.28;;;3.40;;
10977;SDS011;5542;48.272;10.794;2023-09-30T05:42:41;5.07;;;3.30;;
10977;SDS011;5542;48.272;10.794;2023-09-30T05:45:09;6.20;;;3.78;;
10977;SDS011;5542;48.272;10.794;2023-09-30T05:47:36;8.73;;;5.50;;
10977;SDS011;5542;48.272;10.794;2023-09-30T05:50:03;6.43;;;3.70;;
10977;SDS011;5542;48.272;10.794;2023-09-30T05:52:32;6.72;;;4.20;;
10977;SDS011;5542;48.272;10.794;2023-09-30T05:54:59;5.57;;;3.55;;
10977;SDS011;5542;48.272;10.794;2023-09-30T05:57:28;5.57;;;3.67;;
10977;SDS011;5542;48.272;10.794;2023-09-30T05:59:55;4.95;;;3.63;;
10977;SDS011;5542;48.272;10.794;2023-09-30T06:02:21;6.70;;;3.75;;
10977;SDS011;5542;48.272;10.794;2023-09-30T06:04:48;5.72;;;3.60;;
10977;SDS011;5542;48.272;10.794;2023-09-30T06:07:16;6.47;;;3.45;;
10977;SDS011;5542;48.272;10.794;2023-09-30T06:09:45;7.45;;;4.50;;
10977;SDS011;5542;48.272;10.794;2023-09-30T06:12:12;7.43;;;4.57;;
10977;SDS011;5542;48.272;10.794;2023-09-30T06:14:40;7.00;;;4.85;;
10977;SDS011;5542;48.272;10.794;2023-09-30T06:17:07;7.35;;;4.68;;
10977;SDS011;5542;48.272;10.794;2023-09-30T06:19:33;7.47;;;4.30;;
10977;SDS011;5542;48.272;10.794;2023-09-30T06:22:00;7.32;;;3.88;;
10977;SDS011;5542;48.272;10.794;2023-09-30T06:24:28;9.50;;;4.90;;
10977;SDS011;5542;48.272;10.794;2023-09-30T06:26:55;9.17;;;5.10;;
10977;SDS011;5542;48.272;10.794;2023-09-30T06:29:21;7.38;;;4.35;;
10977;SDS011;5542;48.272;10.794;2023-09-30T06:31:49;6.88;;;4.30;;
10977;SDS011;5542;48.272;10.794;2023-09-30T06:34:16;6.40;;;4.05;;
10977;SDS011;5542;48.272;10.794;2023-09-30T06:36:43;6.97;;;4.07;;
10977;SDS011;5542;48.272;10.794;2023-09-30T06:39:10;6.72;;;4.20;;
10977;SDS011;5542;48.272;10.794;2023-09-30T06:41:36;6.65;;;4.25;;
10977;SDS011;5542;48.272;10.794;2023-09-30T06:44:04;9.80;;;5.20;;
10977;SDS011;5542;48.272;10.794;2023-09-30T06:46:31;7.75;;;4.53;;
10977;SDS011;5542;48.272;10.794;2023-09-30T06:49:00;7.70;;;4.47;;
10977;SDS011;5542;48.272;10.794;2023-09-30T06:51:27;7.53;;;4.73;;
10977;SDS011;5542;48.272;10.794;2023-09-30T06:53:54;6.35;;;3.60;;
10977;SDS011;5542;48.272;10.794;2023-09-30T06:56:20;8.57;;;4.93;;
10977;SDS011;5542;48.272;10.794;2023-09-30T06:58:47;7.00;;;4.43;;
10977;SDS011;5542;48.272;10.794;2023-09-30T07:01:14;6.32;;;3.95;;
10977;SDS011;5542;48.272;10.794;2023-09-30T07:03:42;6.40;;;3.50;;
10977;SDS011;5542;48.272;10.794;2023-09-30T07:06:10;6.90;;;4.20;;
10977;SDS011;5542;48.272;10.794;2023-09-30T07:08:37;7.15;;;4.30;;
10977;SDS011;5542;48.272;10.794;2023-09-30T07:11:03;8.20;;;4.60;;
10977;SDS011;5542;48.272;10.794;2023-09-30T07:13:32;6.50;;;4.00;;
10977;SDS011;5542;48.272;10.794;2023-09-30T07:15:59;6.05;;;3.67;;
10977;SDS011;5542;48.272;10.794;2023-09-30T07:18:26;7.20;;;3.90;;
10977;SDS011;5542;48.272;10.794;2023-09-30T07:20:54;6.20;;;3.67;;
10977;SDS011;5542;48.272;10.794;2023-09-30T07:23:22;5.43;;;3.33;;
10977;SDS011;5542;48.272;10.794;2023-09-30T07:25:48;6.10;;;3.85;;
10977;SDS011;5542;48.272;10.794;2023-09-30T07:28:15;5.40;;;3.40;;
10977;SDS011;5542;48.272;10.794;2023-09-30T07:30:43;8.20;;;4.20;;
10977;SDS011;5542;48.272;10.794;2023-09-30T07:33:10;8.82;;;4.47;;
10977;SDS011;5542;48.272;10.794;2023-09-30T07:35:37;7.70;;;4.00;;
10977;SDS011;5542;48.272;10.794;2023-09-30T07:38:04;5.78;;;3.80;;
10977;SDS011;5542;48.272;10.794;2023-09-30T07:40:32;6.47;;;3.70;;
10977;SDS011;5542;48.272;10.794;2023-09-30T07:42:59;4.40;;;3.20;;
10977;SDS011;5542;48.272;10.794;2023-09-30T07:45:25;5.00;;;3.45;;
10977;SDS011;5542;48.272;10.794;2023-09-30T07:47:53;5.00;;;3.53;;
10977;SDS011;5542;48.272;10.794;2023-09-30T07:50:19;5.15;;;3.60;;
10977;SDS011;5542;48.272;10.794;2023-09-30T07:52:46;6.65;;;3.92;;
10977;SDS011;5542;48.272;10.794;2023-09-30T07:55:13;5.85;;;3.42;;
10977;SDS011;5542;48.272;10.794;2023-09-30T07:57:41;5.05;;;3.65;;
10977;SDS011;5542;48.272;10.794;2023-09-30T08:00:09;6.18;;;3.60;;
10977;SDS011;5542;48.272;10.794;2023-09-30T08:02:40;4.53;;;3.40;;
10977;SDS011;5542;48.272;10.794;2023-09-30T08:05:07;5.68;;;3.53;;
10977;SDS011;5542;48.272;10.794;2023-09-30T08:07:35;5.78;;;3.63;;
10977;SDS011;5542;48.272;10.794;2023-09-30T08:10:02;6.20;;;3.90;;
10977;SDS011;5542;48.272;10.794;2023-09-30T08:12:30;5.95;;;3.40;;
10977;SDS011;5542;48.272;10.794;2023-09-30T08:14:58;6.93;;;3.85;;
10977;SDS011;5542;48.272;10.794;2023-09-30T08:17:25;5.68;;;3.78;;
10977;SDS011;5542;48.272;10.794;2023-09-30T08:19:51;7.68;;;4.15;;
10977;SDS011;5542;48.272;10.794;2023-09-30T08:22:18;6.57;;;3.95;;
10977;SDS011;5542;48.272;10.794;2023-09-30T08:24:45;6.18;;;3.50;;
10977;SDS011;5542;48.272;10.794;2023-09-30T08:27:11;4.85;;;3.25;;
10977;SDS011;5542;48.272;10.794;2023-09-30T08:29:39;5.75;;;3.33;;
10977;SDS011;5542;48.272;10.794;2023-09-30T08:32:07;5.22;;;3.40;;
10977;SDS011;5542;48.272;10.794;2023-09-30T08:34:33;4.25;;;3.00;;
10977;SDS011;5542;48.272;10.794;2023-09-30T08:37:00;5.85;;;3.60;;
10977;SDS011;5542;48.272;10.794;2023-09-30T08:39:27;4.82;;;3.75;;
10977;SDS011;5542;48.272;10.794;2023-09-30T08:41:54;4.70;;;3.03;;
10977;SDS011;5542;48.272;10.794;2023-09-30T08:44:21;5.30;;;3.60;;
10977;SDS011;5542;48.272;10.794;2023-09-30T08:46:48;7.43;;;3.37;;
10977;SDS011;5542;48.272;10.794;2023-09-30T08:49:18;5.15;;;3.53;;
10977;SDS011;5542;48.272;10.794;2023-09-30T08:51:46;6.10;;;3.80;;
10977;SDS011;5542;48.272;10.794;2023-09-30T08:54:15;4.90;;;3.17;;
10977;SDS011;5542;48.272;10.794;2023-09-30T08:56:42;5.78;;;3.35;;
10977;SDS011;5542;48.272;10.794;2023-09-30T08:59:13;4.57;;;3.10;;
10977;SDS011;5542;48.272;10.794;2023-09-30T09:01:41;4.95;;;3.17;;
10977;SDS011;5542;48.272;10.794;2023-09-30T09:04:08;4.30;;;3.28;;
10977;SDS011;5542;48.272;10.794;2023-09-30T09:06:36;4.10;;;3.27;;
10977;SDS011;5542;48.272;10.794;2023-09-30T09:09:12;3.85;;;2.80;;
10977;SDS011;5542;48.272;10.794;2023-09-30T09:11:40;5.28;;;3.28;;
10977;SDS011;5542;48.272;10.794;2023-09-30T09:14:06;4.50;;;3.35;;
10977;SDS011;5542;48.272;10.794;2023-09-30T09:16:33;5.68;;;3.22;;
10977;SDS011;5542;48.272;10.794;2023-09-30T09:19:02;5.38;;;3.30;;
10977;SDS011;5542;48.272;10.794;2023-09-30T09:21:40;4.10;;;3.28;;
10977;SDS011;5542;48.272;10.794;2023-09-30T09:24:26;4.45;;;2.95;;
10977;SDS011;5542;48.272;10.794;2023-09-30T09:26:57;4.55;;;3.20;;
10977;SDS011;5542;48.272;10.794;2023-09-30T09:29:30;4.82;;;3.15;;
10977;SDS011;5542;48.272;10.794;2023-09-30T09:32:06;5.32;;;3.30;;
10977;SDS011;5542;48.272;10.794;2023-09-30T09:34:33;4.67;;;3.17;;
10977;SDS011;5542;48.272;10.794;2023-09-30T09:37:01;4.47;;;3.27;;
10977;SDS011;5542;48.272;10.794;2023-09-30T09:39:39;5.78;;;3.67;;
10977;SDS011;5542;48.272;10.794;2023-09-30T09:42:05;4.45;;;3.55;;
10977;SDS011;5542;48.272;10.794;2023-09-30T09:44:32;3.60;;;3.03;;
10977;SDS011;5542;48.272;10.794;2023-09-30T09:47:02;4.65;;;3.20;;
10977;SDS011;5542;48.272;10.794;2023-09-30T09:49:31;4.93;;;3.67;;
10977;SDS011;5542;48.272;10.794;2023-09-30T09:51:59;4.32;;;3.08;;
10977;SDS011;5542;48.272;10.794;2023-09-30T09:54:28;4.97;;;3.58;;
10977;SDS011;5542;48.272;10.794;2023-09-30T09:56:57;5.33;;;3.53;;
10977;SDS011;5542;48.272;10.794;2023-09-30T09:59:27;4.53;;;3.50;;
10977;SDS011;5542;48.272;10.794;2023-09-30T10:01:54;5.88;;;3.50;;
10977;SDS011;5542;48.272;10.794;2023-09-30T10:04:21;4.93;;;3.35;;
10977;SDS011;5542;48.272;10.794;2023-09-30T10:06:48;5.72;;;3.80;;
10977;SDS011;5542;48.272;10.794;2023-09-30T10:09:21;5.35;;;3.50;;
10977;SDS011;5542;48.272;10.794;2023-09-30T10:11:49;4.93;;;3.42;;
10977;SDS011;5542;48.272;10.794;2023-09-30T10:14:30;6.25;;;3.97;;
10977;SDS011;5542;48.272;10.794;2023-09-30T10:16:58;6.38;;;3.67;;
10977;SDS011;5542;48.272;10.794;2023-09-30T10:19:24;5.68;;;3.78;;
10977;SDS011;5542;48.272;10.794;2023-09-30T10:24:52;5.07;;;3.73;;
10977;SDS011;5542;48.272;10.794;2023-09-30T10:27:32;7.45;;;3.92;;
10977;SDS011;5542;48.272;10.794;2023-09-30T10:30:10;5.15;;;3.92;;
10977;SDS011;5542;48.272;10.794;2023-09-30T10:35:41;4.95;;;3.40;;
10977;SDS011;5542;48.272;10.794;2023-09-30T10:41:09;5.95;;;3.58;;
10977;SDS011;5542;48.272;10.794;2023-09-30T10:43:40;6.13;;;4.03;;
10977;SDS011;5542;48.272;10.794;2023-09-30T10:48:56;7.30;;;4.25;;
10977;SDS011;5542;48.272;10.794;2023-09-30T10:51:22;5.97;;;4.10;;
10977;SDS011;5542;48.272;10.794;2023-09-30T10:53:50;5.43;;;3.65;;
10977;SDS011;5542;48.272;10.794;2023-09-30T10:56:19;7.68;;;4.30;;
10977;SDS011;5542;48.272;10.794;2023-09-30T10:58:47;5.35;;;3.85;;
10977;SDS011;5542;48.272;10.794;2023-09-30T11:01:14;7.80;;;4.55;;
10977;SDS011;5542;48.272;10.794;2023-09-30T11:03:42;8.88;;;4.95;;
10977;SDS011;5542;48.272;10.794;2023-09-30T11:06:11;6.88;;;4.55;;
10977;SDS011;5542;48.272;10.794;2023-09-30T11:08:44;6.95;;;4.30;;
10977;SDS011;5542;48.272;10.794;2023-09-30T11:11:13;6.80;;;4.50;;
10977;SDS011;5542;48.272;10.794;2023-09-30T11:13:41;8.55;;;5.18;;
10977;SDS011;5542;48.272;10.794;2023-09-30T11:16:08;9.97;;;4.60;;
10977;SDS011;5542;48.272;10.794;2023-09-30T11:18:35;6.63;;;4.20;;
10977;SDS011;5542;48.272;10.794;2023-09-30T11:21:03;10.85;;;5.35;;
10977;SDS011;5542;48.272;10.794;2023-09-30T11:23:35;8.18;;;4.78;;
10977;SDS011;5542;48.272;10.794;2023-09-30T11:26:03;6.83;;;4.53;;
10977;SDS011;5542;48.272;10.794;2023-09-30T11:28:37;6.00;;;4.32;;
10977;SDS011;5542;48.272;10.794;2023-09-30T11:31:08;5.78;;;3.95;;
10977;SDS011;5542;48.272;10.794;2023-09-30T11:33:48;8.35;;;4.95;;
10977;SDS011;5542;48.272;10.794;2023-09-30T11:36:17;9.20;;;6.70;;
10977;SDS011;5542;48.272;10.794;2023-09-30T11:38:45;8.15;;;4.45;;
10977;SDS011;5542;48.272;10.794;2023-09-30T11:41:13;7.90;;;4.57;;
10977;SDS011;5542;48.272;10.794;2023-09-30T11:43:57;10.20;;;5.55;;
10977;SDS011;5542;48.272;10.794;2023-09-30T11:46:27;8.50;;;4.97;;
10977;SDS011;5542;48.272;10.794;2023-09-30T11:48:56;9.07;;;5.35;;
10977;SDS011;5542;48.272;10.794;2023-09-30T11:51:24;9.60;;;5.40;;
10977;SDS011;5542;48.272;10.794;2023-09-30T11:53:51;8.40;;;5.28;;
10977;SDS011;5542;48.272;10.794;2023-09-30T11:58:47;6.97;;;4.60;;
10977;SDS011;5542;48.272;10.794;2023-09-30T12:01:14;8.80;;;4.93;;
10977;SDS011;5542;48.272;10.794;2023-09-30T12:03:42;7.93;;;5.27;;
10977;SDS011;5542;48.272;10.794;2023-09-30T12:06:09;6.68;;;4.50;;
10977;SDS011;5542;48.272;10.794;2023-09-30T12:08:38;13.98;;;7.95;;
10977;SDS011;5542;48.272;10.794;2023-09-30T12:11:05;8.65;;;5.78;;
10977;SDS011;5542;48.272;10.794;2023-09-30T12:13:32;5.80;;;4.45;;
10977;SDS011;5542;48.272;10.794;2023-09-30T12:15:59;7.60;;;4.40;;
10977;SDS011;5542;48.272;10.794;2023-09-30T12:18:26;10.45;;;5.53;;
10977;SDS011;5542;48.272;10.794;2023-09-30T12:20:54;9.45;;;5.32;;
10977;SDS011;5542;48.272;10.794;2023-09-30T12:23:21;6.68;;;4.20;;
10977;SDS011;5542;48.272;10.794;2023-09-30T12:25:48;6.70;;;4.30;;
10977;SDS011;5542;48.272;10.794;2023-09-30T12:28:15;8.43;;;4.60;;
10977;SDS011;5542;48.272;10.794;2023-09-30T12:30:43;8.73;;;4.95;;
10977;SDS011;5542;48.272;10.794;2023-09-30T12:33:09;8.88;;;5.47;;
10977;SDS011;5542;48.272;10.794;2023-09-30T12:35:36;7.40;;;4.93;;
10977;SDS011;5542;48.272;10.794;2023-09-30T12:38:04;9.98;;;6.15;;
10977;SDS011;5542;48.272;10.794;2023-09-30T12:40:31;8.45;;;5.40;;
10977;SDS011;5542;48.272;10.794;2023-09-30T12:42:59;9.20;;;5.32;;
10977;SDS011;5542;48.272;10.794;2023-09-30T12:45:26;11.90;;;5.90;;
10977;SDS011;5542;48.272;10.794;2023-09-30T12:47:53;12.25;;;6.47;;
10977;SDS011;5542;48.272;10.794;2023-09-30T12:50:21;10.57;;;5.85;;
10977;SDS011;5542;48.272;10.794;2023-09-30T12:52:48;10.18;;;5.90;;
10977;SDS011;5542;48.272;10.794;2023-09-30T12:55:16;10.25;;;5.68;;
10977;SDS011;5542;48.272;10.794;2023-09-30T12:57:43;7.72;;;5.18;;
10977;SDS011;5542;48.272;10.794;2023-09-30T13:00:10;12.13;;;5.97;;
10977;SDS011;5542;48.272;10.794;2023-09-30T13:02:37;9.65;;;5.50;;
10977;SDS011;5542;48.272;10.794;2023-09-30T13:05:04;10.63;;;6.20;;
10977;SDS011;5542;48.272;10.794;2023-09-30T13:07:32;8.05;;;5.20;;
10977;SDS011;5542;48.272;10.794;2023-09-30T13:09:59;8.70;;;5.43;;
10977;SDS011;5542;48.272;10.794;2023-09-30T13:12:27;9.50;;;5.55;;
10977;SDS011;5542;48.272;10.794;2023-09-30T13:14:54;9.77;;;5.63;;
10977;SDS011;5542;48.272;10.794;2023-09-30T13:17:21;9.80;;;5.68;;
10977;SDS011;5542;48.272;10.794;2023-09-30T13:19:48;7.38;;;4.90;;
10977;SDS011;5542;48.272;10.794;2023-09-30T13:22:16;8.07;;;5.40;;
10977;SDS011;5542;48.272;10.794;2023-09-30T13:24:43;9.27;;;5.18;;
10977;SDS011;5542;48.272;10.794;2023-09-30T13:27:09;10.98;;;5.95;;
10977;SDS011;5542;48.272;10.794;2023-09-30T13:29:37;8.85;;;5.55;;
10977;SDS011;5542;48.272;10.794;2023-09-30T13:32:06;9.52;;;5.63;;
10977;SDS011;5542;48.272;10.794;2023-09-30T13:34:32;9.57;;;5.78;;
10977;SDS011;5542;48.272;10.794;2023-09-30T13:36:59;7.55;;;5.07;;
10977;SDS011;5542;48.272;10.794;2023-09-30T13:39:26;9.33;;;5.10;;
10977;SDS011;5542;48.272;10.794;2023-09-30T13:41:54;11.13;;;5.93;;
10977;SDS011;5542;48.272;10.794;2023-09-30T13:44:20;10.25;;;5.80;;
10977;SDS011;5542;48.272;10.794;2023-09-30T13:46:49;9.63;;;5.40;;
10977;SDS011;5542;48.272;10.794;2023-09-30T13:49:16;9.88;;;5.20;;
10977;SDS011;5542;48.272;10.794;2023-09-30T13:51:42;9.18;;;5.90;;
10977;SDS011;5542;48.272;10.794;2023-09-30T13:54:09;8.23;;;5.40;;
10977;SDS011;5542;48.272;10.794;2023-09-30T13:56:36;7.45;;;4.70;;
10977;SDS011;5542;48.272;10.794;2023-09-30T13:59:02;7.30;;;4.60;;
10977;SDS011;5542;48.272;10.794;2023-09-30T14:01:29;9.43;;;5.82;;
10977;SDS011;5542;48.272;10.794;2023-09-30T14:03:57;9.43;;;5.30;;
10977;SDS011;5542;48.272;10.794;2023-09-30T14:06:24;8.63;;;5.32;;
10977;SDS011;5542;48.272;10.794;2023-09-30T14:08:51;8.02;;;4.95;;
10977;SDS011;5542;48.272;10.794;2023-09-30T14:11:18;8.38;;;5.28;;
10977;SDS011;5542;48.272;10.794;2023-09-30T14:13:45;9.63;;;5.45;;
10977;SDS011;5542;48.272;10.794;2023-09-30T14:16:11;8.73;;;5.22;;
10977;SDS011;5542;48.272;10.794;2023-09-30T14:18:38;8.55;;;5.18;;
10977;SDS011;5542;48.272;10.794;2023-09-30T14:21:06;9.63;;;5.30;;
10977;SDS011;5542;48.272;10.794;2023-09-30T14:23:33;8.60;;;5.25;;
10977;SDS011;5542;48.272;10.794;2023-09-30T14:25:59;7.80;;;4.63;;
10977;SDS011;5542;48.272;10.794;2023-09-30T14:28:29;9.40;;;5.43;;
10977;SDS011;5542;48.272;10.794;2023-09-30T14:30:57;10.00;;;5.70;;
10977;SDS011;5542;48.272;10.794;2023-09-30T14:33:23;7.78;;;4.95;;
10977;SDS011;5542;48.272;10.794;2023-09-30T14:35:50;6.45;;;4.55;;
10977;SDS011;5542;48.272;10.794;2023-09-30T14:38:19;10.88;;;5.60;;
10977;SDS011;5542;48.272;10.794;2023-09-30T14:40:46;6.65;;;4.68;;
10977;SDS011;5542;48.272;10.794;2023-09-30T14:43:12;7.40;;;4.80;;
10977;SDS011;5542;48.272;10.794;2023-09-30T14:45:42;8.57;;;5.13;;
10977;SDS011;5542;48.272;10.794;2023-09-30T14:48:08;8.88;;;5.18;;
10977;SDS011;5542;48.272;10.794;2023-09-30T14:50:35;6.25;;;4.43;;
10977;SDS011;5542;48.272;10.794;2023-09-30T14:53:02;6.20;;;3.87;;
10977;SDS011;5542;48.272;10.794;2023-09-30T14:55:32;7.97;;;4.70;;
10977;SDS011;5542;48.272;10.794;2023-09-30T14:57:59;9.70;;;5.60;;
10977;SDS011;5542;48.272;10.794;2023-09-30T15:00:26;7.88;;;4.93;;
10977;SDS011;5542;48.272;10.794;2023-09-30T15:02:52;6.75;;;4.75;;